createdAt,value
2019-01-14T00:00:29.125Z,99126.77
2019-01-14T00:02:58.326Z,99137.42
2019-01-14T00:05:27.072Z,99118.33
2019-01-14T00:07:55.833Z,99125.86
2019-01-14T00:10:24.415Z,99137.95
2019-01-14T00:12:53.122Z,99150.33
2019-01-14T00:15:22.271Z,99151.16
2019-01-14T00:17:50.873Z,99151.16
2019-01-14T00:20:19.539Z,99160.66
2019-01-14T00:22:48.171Z,99160.97
2019-01-14T00:25:16.762Z,99159.53
2019-01-14T00:27:45.416Z,99180.36
2019-01-14T00:30:16.813Z,99181.70
2019-01-14T00:32:45.541Z,99185.62
2019-01-14T00:35:14.214Z,99192.59
2019-01-14T00:37:42.896Z,99206.31
2019-01-14T00:40:16.144Z,99210.82
2019-01-14T00:42:45.284Z,99221.92
2019-01-14T00:45:14.019Z,99235.64
2019-01-14T00:47:42.870Z,99249.61
2019-01-14T00:50:13.750Z,99239.67
2019-01-14T00:52:42.402Z,99251.45
2019-01-14T00:55:11.035Z,99254.81
2019-01-14T00:57:39.711Z,99271.52
2019-01-14T01:00:21.124Z,99262.20
2019-01-14T01:02:49.867Z,99268.25
2019-01-14T01:05:20.536Z,99273.59
2019-01-14T01:07:49.038Z,99279.14
2019-01-14T01:10:17.876Z,99260.66
2019-01-14T01:12:46.592Z,99272.66
2019-01-14T01:15:16.906Z,99279.66
2019-01-14T01:17:45.744Z,99283.84
2019-01-14T01:20:16.869Z,99281.61
2019-01-14T01:22:45.753Z,99284.27
2019-01-14T01:25:14.374Z,99295.77
2019-01-14T01:27:43.107Z,99294.42
2019-01-14T01:30:13.979Z,99299.33
2019-01-14T01:32:42.581Z,99290.50
2019-01-14T01:35:12.386Z,99308.48
2019-01-14T01:37:41.160Z,99330.52
2019-01-14T01:40:27.999Z,99330.52
2019-01-14T01:42:56.617Z,99323.16
2019-01-14T01:45:25.333Z,99332.79
2019-01-14T01:47:53.930Z,99335.34
2019-01-14T01:50:22.596Z,99346.73
2019-01-14T01:52:51.236Z,99354.52
2019-01-14T01:55:19.882Z,99352.57
2019-01-14T01:57:48.509Z,99360.15
2019-01-14T02:00:23.014Z,99374.52
2019-01-14T02:02:51.625Z,99387.23
2019-01-14T02:05:20.676Z,99387.61
2019-01-14T02:07:49.259Z,99389.03
2019-01-14T02:10:22.443Z,99389.83
2019-01-14T02:12:51.042Z,99398.55
2019-01-14T02:15:20.417Z,99411.06
2019-01-14T02:17:49.031Z,99427.63
2019-01-14T02:20:18.605Z,99427.41
2019-01-14T02:22:47.970Z,99434.30
2019-01-14T02:25:17.545Z,99442.95
2019-01-14T02:27:46.340Z,99430.77
2019-01-14T02:30:17.498Z,99461.55
2019-01-14T02:32:46.101Z,99469.56
2019-01-14T02:35:14.833Z,99479.77
2019-01-14T02:37:43.857Z,99467.98
2019-01-14T02:40:14.888Z,99464.47
2019-01-14T02:42:43.536Z,99456.00
2019-01-14T02:45:12.365Z,99489.38
2019-01-14T02:47:40.980Z,99503.77
2019-01-14T02:50:10.011Z,99501.83
2019-01-14T02:52:39.776Z,99497.69
2019-01-14T02:55:08.524Z,99483.34
2019-01-14T02:57:37.117Z,99469.41
2019-01-14T03:00:09.057Z,99494.00
2019-01-14T03:02:37.671Z,99504.36
2019-01-14T03:05:06.702Z,99508.32
2019-01-14T03:07:35.311Z,99501.33
2019-01-14T03:10:04.860Z,99499.11
2019-01-14T03:12:33.469Z,99526.14
2019-01-14T03:15:02.179Z,99502.91
2019-01-14T03:17:30.886Z,99504.28
2019-01-14T03:19:59.535Z,99484.59
2019-01-14T03:22:28.129Z,99496.66
2019-01-14T03:24:58.041Z,99505.11
2019-01-14T03:27:26.780Z,99500.81
2019-01-14T03:29:55.396Z,99510.70
2019-01-14T03:32:24.116Z,99510.58
2019-01-14T03:34:52.736Z,99506.15
2019-01-14T03:37:21.362Z,99499.38
2019-01-14T03:39:50.032Z,99501.16
2019-01-14T03:42:18.625Z,99429.70
2019-01-14T03:44:47.343Z,99497.34
2019-01-14T03:47:16.192Z,99492.16
2019-01-14T03:49:44.810Z,99485.32
2019-01-14T03:52:13.414Z,99488.80
2019-01-14T03:54:42.113Z,99500.33
2019-01-14T03:57:10.707Z,99498.23
2019-01-14T03:59:39.352Z,99499.05
2019-01-14T04:02:07.950Z,99511.91
2019-01-14T04:04:36.640Z,99495.74
2019-01-14T04:07:05.272Z,99501.71
2019-01-14T04:09:33.976Z,99501.40
2019-01-14T04:12:02.587Z,99515.72
2019-01-14T04:14:31.235Z,99512.05
2019-01-14T04:16:59.951Z,99524.59
2019-01-14T04:19:28.581Z,99518.20
2019-01-14T04:21:57.180Z,99517.17
2019-01-14T04:24:25.768Z,99525.72
2019-01-14T04:26:54.444Z,99534.16
2019-01-14T04:29:23.052Z,99542.82
2019-01-14T04:31:51.771Z,99540.30
2019-01-14T04:34:20.396Z,99545.62
2019-01-14T04:36:48.979Z,99548.97
2019-01-14T04:39:17.896Z,99542.15
2019-01-14T04:41:46.477Z,99533.38
2019-01-14T04:44:15.044Z,99544.03
2019-01-14T04:46:43.646Z,99532.21
2019-01-14T04:49:12.249Z,99546.34
2019-01-14T04:51:40.888Z,99538.09
2019-01-14T04:54:09.486Z,99536.86
2019-01-14T04:56:38.093Z,99549.56
2019-01-14T04:59:06.715Z,99548.91
2019-01-14T05:01:35.486Z,99558.08
2019-01-14T05:04:04.116Z,99573.02
2019-01-14T05:06:32.787Z,99583.68
2019-01-14T05:09:01.381Z,99585.91
2019-01-14T05:11:30.001Z,99592.70
2019-01-14T05:13:58.649Z,99588.06
2019-01-14T05:16:27.305Z,99582.51
2019-01-14T05:18:55.922Z,99593.64
2019-01-14T05:21:24.628Z,99590.59
2019-01-14T05:23:53.315Z,99591.09
2019-01-14T05:26:22.188Z,99598.21
2019-01-14T05:28:50.760Z,99601.81
2019-01-14T05:31:29.217Z,99609.17
2019-01-14T05:33:57.838Z,99611.56
2019-01-14T05:36:26.549Z,99613.52
2019-01-14T05:38:55.180Z,99605.05
2019-01-14T05:41:23.790Z,99608.48
2019-01-14T05:43:52.418Z,99612.28
2019-01-14T05:46:21.090Z,99601.75
2019-01-14T05:48:49.634Z,99616.59
2019-01-14T05:51:18.216Z,99623.31
2019-01-14T05:53:46.829Z,99626.13
2019-01-14T05:56:15.526Z,99615.52
2019-01-14T05:58:44.328Z,99636.88
2019-01-14T06:01:13.099Z,99624.58
2019-01-14T06:03:41.796Z,99623.31
2019-01-14T06:06:10.503Z,99614.31
2019-01-14T06:08:39.206Z,99632.33
2019-01-14T06:11:16.730Z,99627.94
2019-01-14T06:14:19.935Z,99628.91
2019-01-14T06:19:40.875Z,99647.11
2019-01-14T06:22:09.484Z,99651.59
2019-01-14T06:24:38.069Z,99654.31
2019-01-14T06:27:06.689Z,99654.84
2019-01-14T06:29:35.639Z,99675.69
2019-01-14T06:32:04.310Z,99683.40
2019-01-14T06:34:41.155Z,99677.05
2019-01-14T06:37:09.749Z,99672.98
2019-01-14T06:39:38.459Z,99672.98
2019-01-14T06:42:07.598Z,99676.81
2019-01-14T06:44:36.346Z,99687.29
2019-01-14T06:47:05.076Z,99693.98
2019-01-14T06:49:33.678Z,99697.59
2019-01-14T06:52:02.374Z,99696.81
2019-01-14T06:54:30.929Z,99685.89
2019-01-14T06:56:59.641Z,99694.53
2019-01-14T06:59:28.297Z,99700.33
2019-01-14T07:01:56.965Z,99706.23
2019-01-14T07:04:25.609Z,99710.16
2019-01-14T07:06:54.232Z,99718.09
2019-01-14T07:09:22.884Z,99740.67
2019-01-14T07:11:51.988Z,99732.95
2019-01-14T07:14:20.619Z,99739.16
2019-01-14T07:16:49.345Z,99750.53
2019-01-14T07:19:18.376Z,99757.50
2019-01-14T07:21:46.994Z,99761.77
2019-01-14T07:24:15.797Z,99759.02
2019-01-14T07:26:44.720Z,99768.04
2019-01-14T07:29:13.338Z,99767.76
2019-01-14T07:31:42.173Z,99767.41
2019-01-14T07:34:10.821Z,99768.23
2019-01-14T07:36:39.496Z,99774.72
2019-01-14T07:39:08.920Z,99772.67
2019-01-14T07:41:37.570Z,99760.53
2019-01-14T07:44:06.201Z,99779.60
2019-01-14T07:46:35.674Z,99777.26
2019-01-14T07:49:04.279Z,99779.88
2019-01-14T07:51:33.021Z,99793.82
2019-01-14T07:54:01.739Z,99798.83
2019-01-14T07:56:30.569Z,99790.63
2019-01-14T07:58:59.348Z,99810.42
2019-01-14T08:01:27.981Z,99814.28
2019-01-14T08:03:56.663Z,99804.55
2019-01-14T08:06:25.521Z,99815.48
2019-01-14T08:08:55.314Z,99823.11
2019-01-14T08:11:23.926Z,99816.13
2019-01-14T08:13:52.651Z,99835.20
2019-01-14T08:16:21.288Z,99809.08
2019-01-14T08:18:50.076Z,99821.57
2019-01-14T08:21:18.807Z,99837.34
2019-01-14T08:23:47.406Z,99834.02
2019-01-14T08:26:16.015Z,99842.41
2019-01-14T08:28:44.639Z,99850.08
2019-01-14T08:31:13.318Z,99851.00
2019-01-14T08:33:42.058Z,99842.00
2019-01-14T08:36:10.685Z,99849.19
2019-01-14T08:38:39.303Z,99853.28
2019-01-14T08:41:08.681Z,99823.56
2019-01-14T08:43:38.547Z,99860.09
2019-01-14T08:46:07.809Z,99865.58
2019-01-14T08:48:36.629Z,99868.08
2019-01-14T08:51:05.337Z,99861.05
2019-01-14T08:53:34.251Z,99845.97
2019-01-14T08:56:02.906Z,99857.59
2019-01-14T08:58:31.535Z,99846.69
2019-01-14T09:01:00.431Z,99859.62
2019-01-14T09:03:29.028Z,99862.98
2019-01-14T09:05:57.625Z,99857.44
2019-01-14T09:08:28.719Z,99857.88
2019-01-14T09:10:56.773Z,99862.86
2019-01-14T09:13:25.426Z,99867.52
2019-01-14T09:15:54.051Z,99864.53
2019-01-14T09:18:22.675Z,99870.46
2019-01-14T09:20:51.357Z,99887.55
2019-01-14T09:23:20.015Z,99869.55
2019-01-14T09:25:53.801Z,99877.34
2019-01-14T09:28:19.535Z,99873.31
2019-01-14T09:30:48.276Z,99881.68
2019-01-14T09:33:17.088Z,99889.19
2019-01-14T09:35:45.765Z,99891.12
2019-01-14T09:38:14.385Z,99894.77
2019-01-14T09:40:42.957Z,99903.70
2019-01-14T09:43:11.699Z,99907.92
2019-01-14T09:45:40.347Z,99907.92
2019-01-14T09:48:08.966Z,99924.28
2019-01-14T09:50:37.581Z,99926.75
2019-01-14T09:53:06.307Z,99938.16
2019-01-14T09:55:35.748Z,99952.22
2019-01-14T09:58:04.383Z,99946.30
2019-01-14T10:00:33.086Z,99958.58
2019-01-14T10:03:01.990Z,99949.99
2019-01-14T10:05:30.667Z,99964.89
2019-01-14T10:07:59.301Z,99966.95
2019-01-14T10:10:32.947Z,99961.63
2019-01-14T10:13:01.657Z,99967.59
2019-01-14T10:15:30.338Z,99968.22
2019-01-14T10:18:04.507Z,99961.59
2019-01-14T10:20:33.242Z,99968.73
2019-01-14T10:23:02.032Z,99961.88
2019-01-14T10:25:31.005Z,99985.78
2019-01-14T10:27:59.608Z,99979.52
2019-01-14T10:30:28.229Z,99986.81
2019-01-14T10:32:56.876Z,99994.09
2019-01-14T10:35:25.489Z,99987.13
2019-01-14T10:37:54.128Z,99989.79
2019-01-14T10:40:22.884Z,99989.44
2019-01-14T10:42:51.498Z,99983.45
2019-01-14T10:45:21.735Z,99998.70
2019-01-14T10:47:50.352Z,100007.17
2019-01-14T10:50:19.224Z,100017.44
2019-01-14T10:52:47.869Z,99999.27
2019-01-14T10:55:16.544Z,99997.80
2019-01-14T10:57:45.228Z,99988.80
2019-01-14T11:00:17.488Z,99991.74
2019-01-14T11:02:48.032Z,100001.19
2019-01-14T11:05:19.622Z,100000.75
2019-01-14T11:07:48.350Z,99996.70
2019-01-14T11:10:17.137Z,99988.44
2019-01-14T11:12:45.891Z,100009.52
2019-01-14T11:15:14.950Z,99994.66
2019-01-14T11:17:43.693Z,100008.58
2019-01-14T11:20:20.147Z,100021.94
2019-01-14T11:22:48.778Z,100021.91
2019-01-14T11:25:18.187Z,100021.91
2019-01-14T11:27:46.941Z,100023.13
2019-01-14T11:30:18.807Z,100031.11
2019-01-14T11:32:47.469Z,100036.16
2019-01-14T11:35:16.060Z,100049.66
2019-01-14T11:37:44.751Z,100052.81
2019-01-14T11:40:16.591Z,100040.03
2019-01-14T11:42:45.187Z,100053.09
2019-01-14T11:45:13.975Z,100043.46
2019-01-14T11:47:42.601Z,100051.03
2019-01-14T11:50:12.902Z,100060.63
2019-01-14T11:52:41.605Z,100083.41
2019-01-14T11:55:10.227Z,100065.16
2019-01-14T11:57:38.918Z,100080.16
2019-01-14T12:00:12.564Z,100083.42
2019-01-14T12:02:41.171Z,100085.75
2019-01-14T12:05:10.345Z,100078.41
2019-01-14T12:07:39.199Z,100097.93
2019-01-14T12:10:08.898Z,100081.63
2019-01-14T12:12:37.607Z,100081.84
2019-01-14T12:15:12.884Z,100094.37
2019-01-14T12:17:42.575Z,100089.31
2019-01-14T12:20:12.279Z,100085.11
2019-01-14T12:22:41.052Z,100099.80
2019-01-14T12:25:09.850Z,100074.53
2019-01-14T12:27:38.597Z,100080.27
2019-01-14T12:30:12.166Z,100098.79
2019-01-14T12:32:40.921Z,100113.65
2019-01-14T12:35:09.639Z,100113.25
2019-01-14T12:37:40.386Z,100115.08
2019-01-14T12:40:10.806Z,100116.94
2019-01-14T12:42:39.437Z,100126.88
2019-01-14T12:45:09.735Z,100114.64
2019-01-14T12:47:38.392Z,100131.64
2019-01-14T12:50:09.303Z,100135.92
2019-01-14T12:52:38.022Z,100140.56
2019-01-14T12:55:07.902Z,100116.16
2019-01-14T12:57:36.618Z,100117.32
2019-01-14T13:00:08.676Z,100118.50
2019-01-14T13:02:37.575Z,100123.45
2019-01-14T13:05:07.116Z,100128.78
2019-01-14T13:07:36.398Z,100126.30
2019-01-14T13:10:06.115Z,100130.67
2019-01-14T13:12:34.923Z,100140.90
2019-01-14T13:15:03.895Z,100150.27
2019-01-14T13:17:32.598Z,100149.89
2019-01-14T13:20:01.747Z,100134.04
2019-01-14T13:22:30.518Z,100144.39
2019-01-14T13:24:59.148Z,100140.11
2019-01-14T13:27:27.831Z,100063.34
2019-01-14T13:29:56.455Z,100124.41
2019-01-14T13:32:25.100Z,100141.89
2019-01-14T13:34:53.757Z,100138.22
2019-01-14T13:37:22.380Z,100145.45
2019-01-14T13:39:52.589Z,100124.32
2019-01-14T13:42:21.329Z,100154.83
2019-01-14T13:44:50.279Z,100165.75
2019-01-14T13:47:19.005Z,100161.63
2019-01-14T13:49:47.687Z,100174.58
2019-01-14T13:52:16.374Z,100185.63
2019-01-14T13:54:45.120Z,100179.03
2019-01-14T13:57:13.866Z,100198.83
2019-01-14T13:59:42.505Z,100220.59
2019-01-14T14:02:11.251Z,100244.34
2019-01-14T14:04:39.906Z,100221.97
2019-01-14T14:07:08.625Z,100214.79
2019-01-14T14:09:41.111Z,100227.09
2019-01-14T14:12:07.677Z,100218.15
2019-01-14T14:14:36.412Z,100213.13
2019-01-14T14:17:05.023Z,100210.95
2019-01-14T14:19:33.843Z,100217.24
2019-01-14T14:22:02.598Z,100212.25
2019-01-14T14:24:31.347Z,100226.59
2019-01-14T14:27:00.010Z,100212.45
2019-01-14T14:29:28.600Z,100143.42
2019-01-14T14:31:57.329Z,100214.96
2019-01-14T14:34:26.083Z,100221.80
2019-01-14T14:36:55.138Z,100230.29
2019-01-14T14:39:23.741Z,100222.97
2019-01-14T14:41:52.708Z,100241.73
2019-01-14T14:44:22.478Z,100241.21
2019-01-14T14:46:51.076Z,100226.73
2019-01-14T14:49:20.104Z,100244.34
2019-01-14T14:51:48.758Z,100246.38
2019-01-14T14:54:17.374Z,100266.50
2019-01-14T14:56:45.956Z,100266.50
2019-01-14T14:59:15.541Z,100277.66
2019-01-14T15:01:44.150Z,100283.98
2019-01-14T15:04:12.765Z,100264.20
2019-01-14T15:06:41.405Z,100292.02
2019-01-14T15:09:10.193Z,100289.54
2019-01-14T15:11:38.918Z,100297.07
2019-01-14T15:14:07.578Z,100297.50
2019-01-14T15:16:36.260Z,100308.02
2019-01-14T15:19:04.916Z,100315.28
2019-01-14T15:21:33.590Z,100320.39
2019-01-14T15:24:02.802Z,100323.42
2019-01-14T15:26:31.589Z,100333.91
2019-01-14T15:29:00.236Z,100325.45
2019-01-14T15:31:28.906Z,100341.75
2019-01-14T15:33:57.552Z,100346.24
2019-01-14T15:36:26.199Z,100352.05
2019-01-14T15:38:54.951Z,100362.50
2019-01-14T15:41:23.755Z,100379.33
2019-01-14T15:43:52.473Z,100389.27
2019-01-14T15:46:21.091Z,100384.78
2019-01-14T15:48:49.843Z,100385.62
2019-01-14T15:51:18.480Z,100381.30
2019-01-14T15:53:47.105Z,100385.95
2019-01-14T15:56:15.749Z,100378.63
2019-01-14T15:58:44.369Z,100389.94
2019-01-14T16:01:12.991Z,100383.77
2019-01-14T16:03:41.671Z,100397.42
2019-01-14T16:06:10.239Z,100401.73
2019-01-14T16:08:38.873Z,100401.19
2019-01-14T16:11:07.457Z,100421.78
2019-01-14T16:13:36.236Z,100419.09
2019-01-14T16:16:04.880Z,100431.84
2019-01-14T16:18:33.502Z,100433.33
2019-01-14T16:21:02.093Z,100437.46
2019-01-14T16:23:30.729Z,100438.59
2019-01-14T16:25:59.449Z,100435.73
2019-01-14T16:28:28.141Z,100444.20
2019-01-14T16:30:56.878Z,100459.11
2019-01-14T16:33:25.517Z,100458.45
2019-01-14T16:35:54.093Z,100458.78
2019-01-14T16:38:22.708Z,100451.44
2019-01-14T16:40:51.642Z,100464.31
2019-01-14T16:43:20.346Z,100468.98
2019-01-14T16:45:48.935Z,100473.30
2019-01-14T16:48:17.649Z,100484.55
2019-01-14T16:50:46.328Z,100478.23
2019-01-14T16:53:15.088Z,100495.00
2019-01-14T16:55:46.855Z,100497.11
2019-01-14T16:58:15.462Z,100489.80
2019-01-14T17:00:44.029Z,100499.67
2019-01-14T17:03:12.723Z,100502.44
2019-01-14T17:05:41.316Z,100505.20
2019-01-14T17:08:10.011Z,100522.13
2019-01-14T17:10:38.656Z,100531.79
2019-01-14T17:13:07.370Z,100538.09
2019-01-14T17:15:36.422Z,100529.75
2019-01-14T17:18:05.006Z,100523.05
2019-01-14T17:20:33.629Z,100534.67
2019-01-14T17:23:02.253Z,100539.50
2019-01-14T17:25:30.905Z,100536.35
2019-01-14T17:27:59.627Z,100542.48
2019-01-14T17:30:28.402Z,100561.78
2019-01-14T17:32:57.049Z,100556.20
2019-01-14T17:35:25.640Z,100552.52
2019-01-14T17:37:54.371Z,100544.16
2019-01-14T17:40:23.139Z,100559.60
2019-01-14T17:42:51.738Z,100552.97
2019-01-14T17:45:20.378Z,100574.85
2019-01-14T17:47:49.034Z,100572.55
2019-01-14T17:50:19.162Z,100566.11
2019-01-14T17:52:47.714Z,100574.86
2019-01-14T17:55:16.421Z,100566.09
2019-01-14T17:57:45.206Z,100571.75
2019-01-14T18:00:23.019Z,100562.53
2019-01-14T18:02:51.624Z,100568.67
2019-01-14T18:05:20.312Z,100579.36
2019-01-14T18:07:48.928Z,100567.19
2019-01-14T18:10:18.971Z,100568.39
2019-01-14T18:12:47.564Z,100585.61
2019-01-14T18:15:16.226Z,100588.38
2019-01-14T18:17:44.891Z,100592.17
2019-01-14T18:20:15.603Z,100599.22
2019-01-14T18:22:44.230Z,100597.28
2019-01-14T18:25:12.906Z,100602.95
2019-01-14T18:27:41.567Z,100612.22
2019-01-14T18:30:13.108Z,100613.70
2019-01-14T18:32:41.717Z,100606.17
2019-01-14T18:35:10.345Z,100613.17
2019-01-14T18:37:38.966Z,100606.92
2019-01-14T18:40:09.267Z,100621.08
2019-01-14T18:42:37.874Z,100621.22
2019-01-14T18:45:08.508Z,100629.17
2019-01-14T18:47:37.094Z,100633.30
2019-01-14T18:50:07.204Z,100642.35
2019-01-14T18:52:36.473Z,100654.52
2019-01-14T18:55:05.705Z,100652.71
2019-01-14T18:57:34.310Z,100653.17
2019-01-14T19:00:02.992Z,100649.31
2019-01-14T19:02:31.615Z,100651.02
2019-01-14T19:05:00.351Z,100647.42
2019-01-14T19:07:29.009Z,100654.31
2019-01-14T19:09:57.769Z,100662.59
2019-01-14T19:12:26.460Z,100655.07
2019-01-14T19:14:55.103Z,100666.30
2019-01-14T19:17:23.766Z,100678.27
2019-01-14T19:19:52.417Z,100684.09
2019-01-14T19:22:21.116Z,100688.89
2019-01-14T19:24:49.727Z,100690.80
2019-01-14T19:27:18.390Z,100700.50
2019-01-14T19:29:47.111Z,100696.11
2019-01-14T19:32:15.760Z,100704.67
2019-01-14T19:34:44.699Z,100698.15
2019-01-14T19:37:13.314Z,100703.91
2019-01-14T19:39:41.940Z,100708.50
2019-01-14T19:42:10.539Z,100718.41
2019-01-14T19:44:39.190Z,100711.15
2019-01-14T19:47:08.055Z,100715.37
2019-01-14T19:49:36.696Z,100726.17
2019-01-14T19:52:05.317Z,100720.61
2019-01-14T19:54:34.106Z,100733.78
2019-01-14T19:57:03.031Z,100736.28
2019-01-14T19:59:31.728Z,100737.91
2019-01-14T20:02:02.102Z,100733.52
2019-01-14T20:04:30.694Z,100741.84
2019-01-14T20:06:59.554Z,100738.86
2019-01-14T20:09:28.193Z,100752.28
2019-01-14T20:11:56.949Z,100743.23
2019-01-14T20:14:27.387Z,100742.68
2019-01-14T20:16:56.418Z,100749.77
2019-01-14T20:19:27.028Z,100768.03
2019-01-14T20:21:56.982Z,100769.83
2019-01-14T20:24:26.338Z,100769.61
2019-01-14T20:26:55.354Z,100773.09
2019-01-14T20:29:24.176Z,100785.84
2019-01-14T20:31:54.156Z,100777.66
2019-01-14T20:34:23.018Z,100790.55
2019-01-14T20:36:53.124Z,100786.42
2019-01-14T20:39:22.680Z,100774.67
2019-01-14T20:41:51.628Z,100791.14
2019-01-14T20:44:20.237Z,100793.64
2019-01-14T20:46:49.215Z,100776.48
2019-01-14T20:49:18.481Z,100765.35
2019-01-14T20:51:47.622Z,100773.31
2019-01-14T20:54:16.261Z,100784.26
2019-01-14T20:56:45.042Z,100783.27
2019-01-14T20:59:13.670Z,100775.66
2019-01-14T21:01:42.637Z,100788.27
2019-01-14T21:04:11.274Z,100783.09
2019-01-14T21:06:40.035Z,100785.75
2019-01-14T21:09:08.783Z,100783.09
2019-01-14T21:11:37.564Z,100778.90
2019-01-14T21:14:06.378Z,100785.38
2019-01-14T21:16:35.313Z,100785.38
2019-01-14T21:19:03.873Z,100792.38
2019-01-14T21:21:32.462Z,100796.70
2019-01-14T21:24:01.048Z,100810.71
2019-01-14T21:26:29.667Z,100808.40
2019-01-14T21:32:39.961Z,100819.25
2019-01-14T21:35:08.686Z,100819.19
2019-01-14T21:37:37.265Z,100825.89
2019-01-14T21:40:07.665Z,100826.23
2019-01-14T21:42:36.775Z,100831.23
2019-01-14T21:45:07.095Z,100825.34
2019-01-14T21:47:37.003Z,100810.74
2019-01-14T21:50:07.938Z,100800.72
2019-01-14T21:52:36.867Z,100824.08
2019-01-14T21:55:06.265Z,100823.34
2019-01-14T21:57:34.911Z,100831.39
2019-01-14T22:00:04.376Z,100837.04
2019-01-14T22:02:33.271Z,100829.30
2019-01-14T22:05:01.954Z,100840.68
2019-01-14T22:07:30.594Z,100832.78
2019-01-14T22:09:59.281Z,100840.44
2019-01-14T22:12:27.919Z,100845.96
2019-01-14T22:14:56.606Z,100841.61
2019-01-14T22:17:25.247Z,100843.50
2019-01-14T22:19:53.858Z,100835.94
2019-01-14T22:22:22.821Z,100864.48
2019-01-14T22:24:51.411Z,100863.01
2019-01-14T22:27:20.205Z,100859.11
2019-01-14T22:29:50.769Z,100861.43
2019-01-14T22:32:19.410Z,100865.72
2019-01-14T22:34:47.993Z,100881.64
2019-01-14T22:37:16.862Z,100874.67
2019-01-14T22:39:45.634Z,100868.46
2019-01-14T22:42:14.234Z,100873.58
2019-01-14T22:44:42.856Z,100872.44
2019-01-14T22:47:11.488Z,100870.37
2019-01-14T22:49:40.074Z,100873.86
2019-01-14T22:52:08.713Z,100872.19
2019-01-14T22:54:37.337Z,100872.19
2019-01-14T22:57:05.917Z,100870.37
2019-01-14T22:59:34.660Z,100871.78
2019-01-14T23:02:03.506Z,100867.80
2019-01-14T23:04:32.260Z,100877.09
2019-01-14T23:07:01.085Z,100876.10
2019-01-14T23:09:29.670Z,100883.27
2019-01-14T23:11:58.265Z,100883.92
2019-01-14T23:14:26.870Z,100883.05
2019-01-14T23:16:55.539Z,100886.61
2019-01-14T23:19:24.142Z,100882.97
2019-01-14T23:21:52.961Z,100882.14
2019-01-14T23:24:23.249Z,100892.41
2019-01-14T23:26:51.932Z,100890.31
2019-01-14T23:29:20.642Z,100895.55
2019-01-14T23:31:49.310Z,100901.61
2019-01-14T23:34:18.013Z,100900.22
2019-01-14T23:36:46.660Z,100903.94
2019-01-14T23:39:15.287Z,100906.33
2019-01-14T23:41:43.952Z,100904.87
2019-01-14T23:44:12.604Z,100899.61
2019-01-14T23:46:41.308Z,100908.90
2019-01-14T23:49:09.941Z,100909.95
2019-01-14T23:51:38.524Z,100912.88
2019-01-14T23:54:07.269Z,100922.13
2019-01-14T23:56:36.836Z,100922.20
2019-01-14T23:59:05.618Z,100923.34
